Skip Navigation Links Skip Navigation Links

Current Weather

Bruxelles National, Belgium

For information only: do not use for flight planning or navigation.
Latest weather
Observation time Tuesday, October 19, 2021 10:50 AM CEST
Local time Tuesday, October 19, 2021 11:23 AM CEST
Flight conditions Instrument Meteorological Conditions
Winds
Wind direction South-Southwest (210°)
Wind speed 10 mph
Visibility 2.5 mi.
Present weather light drizzle
Sky condition
Ceiling 600 ft. overcast
Cloud layer overcast 600 ft.
Cloud layer scattered clouds 2,000 ft.
Temperature 61°F
Dewpoint 59°F
Altimeter 30.06 in.Hg
Derived measurements
Relative humidity 94%
Density altitude 249 ft.
METAR EBBR 190850Z 21009KT 4000 -DZ OVC006 16/15 Q1018 BECMG SCT020

Settings

Location code

InnerDrive.Weather 4.0.6770.0 Release CLR 4.0.30319.42000
Copyright ©2018 Inner Drive Technology. All rights reserved. Portions Copyright ©1986-2018 David Braverman.

Find weather

Site navigation


Skip Navigation Links

Place info

Page info

PayPal - The safer, easier way to pay online!

Return home.

Copyright ©2021 Inner Drive Technology. Purveyors of fine, hand-crafted computer software. Page printed 2021-10-19T09:23:32 UTC.